This is the latest recevied weather packets stored in our database for station/object VK4ZPK-13. If no packets are shown the sender has not sent any weather packets the latest 10 day(s).
| Time | Temp. | Humidity | Pressure | Rain* | Wind** | Luminosity | Snow |
|---|---|---|---|---|---|---|---|
| 1777896746 | 21.11° C | 92% | 1014 hPa | 0 mm | - | - | - |
| 1777894946 | 21.11° C | 91% | 1014.2 hPa | 0 mm | - | - | - |
| 1777893146 | 21.11° C | 91% | 1014.3 hPa | 0 mm | - | - | - |
| 1777891346 | 21.11° C | 90% | 1014.2 hPa | 0 mm | - | - | - |
| 1777889546 | 21.67° C | 89% | 1014.1 hPa | 0 mm | - | - | - |
| 1777887746 | 21.67° C | 88% | 1013.8 hPa | 0 mm | - | - | - |
| 1777885946 | 22.22° C | 87% | 1013.6 hPa | 0 mm | - | - | - |
| 1777884146 | 22.22° C | 86% | 1013.3 hPa | 0 mm | - | - | - |
| 1777882346 | 22.78° C | 84% | 1013 hPa | 0 mm | - | - | - |
| 1777880546 | 23.33° C | 82% | 1012.7 hPa | 0 mm | - | - | - |
| 1777878746 | 23.89° C | 79% | 1012.4 hPa | 0 mm | - | - | - |
| 1777876946 | 25° C | 77% | 1012.1 hPa | 0 mm | - | - | - |
| 1777875146 | 25.56° C | 74% | 1012 hPa | 0 mm | - | - | - |
| 1777873346 | 25.56° C | 72% | 1012 hPa | 0 mm | - | - | - |
| 1777871546 | 25.56° C | 72% | 1012 hPa | 0 mm | - | - | - |
| 1777869746 | 26.11° C | 72% | 1011.9 hPa | 0 mm | - | - | - |
| 1777867946 | 26.11° C | 72% | 1012.1 hPa | 0 mm | - | - | - |
| 1777866146 | 26.11° C | 73% | 1012.3 hPa | 0 mm | - | - | - |
| 1777864346 | 26.11° C | 73% | 1012.4 hPa | 0 mm | - | - | - |
| 1777862546 | 25.56° C | 77% | 1012.7 hPa | 0 mm | - | - | - |
| 1777860746 | 25.56° C | 80% | 1013.1 hPa | 0 mm | - | - | - |
| 1777858946 | 25° C | 81% | 1013.7 hPa | 0 mm | - | - | - |
| 1777857146 | 25.56° C | 83% | 1014.1 hPa | 0 mm | - | - | - |
| 1777855346 | 25° C | 89% | 1014.6 hPa | 0 mm | - | - | - |
| 1777853546 | 23.89° C | 94% | 1014.7 hPa | 0 mm | - | - | - |
* Rain latest hour (hover to see other rain measurements)
** Current wind speed in m/s (hover to see current wind gust speed)